createdAt,value
2018-04-28T00:00:53.371Z,0
2018-04-28T00:01:53.043Z,0
2018-04-28T00:02:52.934Z,0
2018-04-28T00:03:53.044Z,0
2018-04-28T00:04:53.103Z,0
2018-04-28T00:05:52.618Z,0
2018-04-28T00:06:53.410Z,0
2018-04-28T00:07:53.433Z,0
2018-04-28T00:08:53.383Z,0
2018-04-28T00:09:53.053Z,0
2018-04-28T00:10:53.919Z,0
2018-04-28T00:11:52.853Z,0
2018-04-28T00:12:52.257Z,0
2018-04-28T00:14:13.291Z,0
2018-04-28T00:15:14.390Z,0
2018-04-28T00:16:13.870Z,0
2018-04-28T00:17:13.773Z,0
2018-04-28T00:18:13.726Z,0
2018-04-28T00:19:23.487Z,0
2018-04-28T00:20:14.192Z,0
2018-04-28T00:21:13.771Z,0
2018-04-28T00:22:13.249Z,0
2018-04-28T00:23:14.498Z,0
2018-04-28T00:24:14.387Z,0
2018-04-28T00:25:14.381Z,0
2018-04-28T00:26:14.107Z,0
2018-04-28T00:27:14.037Z,0
2018-04-28T00:28:14.441Z,0
2018-04-28T00:29:14.499Z,0
2018-04-28T00:30:14.513Z,0
2018-04-28T00:31:14.444Z,0
2018-04-28T00:32:14.566Z,0
2018-04-28T00:33:14.123Z,0
2018-04-28T00:34:13.717Z,0
2018-04-28T00:35:13.730Z,0
2018-04-28T00:37:36.470Z,0
2018-04-28T00:38:57.574Z,0
2018-04-28T00:40:20.805Z,0
2018-04-28T00:41:19.243Z,0
2018-04-28T00:42:40.797Z,0
2018-04-28T00:43:41.783Z,0
2018-04-28T00:44:41.535Z,0
2018-04-28T00:45:41.592Z,0
2018-04-28T00:46:41.162Z,0
2018-04-28T00:47:41.321Z,0
2018-04-28T00:48:41.014Z,0
2018-04-28T00:49:42.185Z,0
2018-04-28T00:50:40.890Z,0
2018-04-28T00:51:41.538Z,0
2018-04-28T00:52:41.279Z,0
2018-04-28T00:53:40.978Z,0
2018-04-28T00:54:41.163Z,0
2018-04-28T00:55:41.052Z,0
2018-04-28T00:56:41.140Z,0
2018-04-28T00:57:41.095Z,0
2018-04-28T00:58:41.058Z,0
2018-04-28T00:59:40.740Z,0
2018-04-28T01:01:02.446Z,0
2018-04-28T01:02:02.197Z,0
2018-04-28T01:03:03.200Z,0
2018-04-28T01:04:02.992Z,0
2018-04-28T01:05:02.516Z,0
2018-04-28T01:06:23.311Z,0
2018-04-28T01:07:24.205Z,0
2018-04-28T01:08:24.993Z,0
2018-04-28T01:09:24.588Z,0
2018-04-28T01:11:04.999Z,0
2018-04-28T01:12:06.151Z,0
2018-04-28T01:13:27.852Z,0
2018-04-28T01:14:28.808Z,0
2018-04-28T01:15:28.058Z,0
2018-04-28T01:16:27.950Z,0
2018-04-28T01:17:28.046Z,0
2018-04-28T01:18:48.469Z,0
2018-04-28T01:19:49.303Z,0
2018-04-28T01:20:49.164Z,0
2018-04-28T01:21:49.018Z,0
2018-04-28T01:22:48.981Z,0
2018-04-28T01:23:49.307Z,0
2018-04-28T01:24:49.354Z,0
2018-04-28T01:25:48.889Z,0
2018-04-28T01:26:48.688Z,0
2018-04-28T01:28:29.824Z,0
2018-04-28T01:29:30.024Z,0
2018-04-28T01:30:29.907Z,0
2018-04-28T01:31:29.516Z,0
2018-04-28T01:32:30.255Z,0
2018-04-28T01:33:30.746Z,0
2018-04-28T01:34:29.447Z,0
2018-04-28T01:35:30.460Z,0
2018-04-28T01:36:30.576Z,0
2018-04-28T01:37:30.516Z,0
2018-04-28T01:38:30.388Z,0
2018-04-28T01:39:33.343Z,0
2018-04-28T01:40:30.498Z,0
2018-04-28T01:41:30.590Z,0
2018-04-28T01:42:29.648Z,0
2018-04-28T01:43:29.472Z,0
2018-04-28T01:44:50.871Z,0
2018-04-28T01:45:54.096Z,0
2018-04-28T01:46:51.251Z,0
2018-04-28T01:47:50.943Z,0
2018-04-28T01:48:51.817Z,0
2018-04-28T01:49:51.556Z,0
2018-04-28T01:50:51.326Z,0
2018-04-28T01:51:51.295Z,0
2018-04-28T01:52:51.135Z,0
2018-04-28T01:53:50.751Z,0
2018-04-28T01:54:51.770Z,0
2018-04-28T01:55:51.608Z,0
2018-04-28T01:56:51.251Z,0
2018-04-28T01:57:51.447Z,0
2018-04-28T01:58:50.966Z,0
2018-04-28T01:59:51.886Z,0
2018-04-28T02:00:51.829Z,0
2018-04-28T02:01:51.244Z,0
2018-04-28T02:02:53.327Z,0
2018-04-28T02:05:13.420Z,0
2018-04-28T02:06:12.935Z,0
2018-04-28T02:07:12.919Z,0
2018-04-28T02:08:12.364Z,0
2018-04-28T02:09:14.821Z,0
2018-04-28T02:10:13.174Z,0
2018-04-28T02:11:33.169Z,0
2018-04-28T02:13:14.693Z,0
2018-04-28T02:14:15.226Z,0
2018-04-28T02:15:15.277Z,0
2018-04-28T02:16:14.837Z,0
2018-04-28T02:17:15.532Z,0
2018-04-28T02:18:38.200Z,0
2018-04-28T02:19:38.886Z,0
2018-04-28T02:20:39.523Z,0
2018-04-28T02:21:38.444Z,0
2018-04-28T02:22:38.380Z,0
2018-04-28T02:23:39.234Z,0
2018-04-28T02:24:39.188Z,0
2018-04-28T02:25:38.958Z,0
2018-04-28T02:26:38.831Z,0
2018-04-28T02:27:38.907Z,0
2018-04-28T02:28:38.449Z,0
2018-04-28T02:29:38.541Z,0
2018-04-28T02:30:38.827Z,0
2018-04-28T02:31:38.295Z,0
2018-04-28T02:32:38.017Z,0
2018-04-28T02:33:39.466Z,0
2018-04-28T02:34:38.549Z,0
2018-04-28T02:35:38.108Z,0
2018-04-28T02:36:39.284Z,0
2018-04-28T02:37:38.344Z,0
2018-04-28T02:38:38.817Z,0
2018-04-28T02:39:38.433Z,0
2018-04-28T02:40:37.892Z,0
2018-04-28T02:41:38.458Z,0
2018-04-28T02:42:38.081Z,0
2018-04-28T02:43:38.601Z,0
2018-04-28T02:44:38.293Z,0
2018-04-28T02:45:38.743Z,0
2018-04-28T02:46:38.658Z,0
2018-04-28T02:47:59.104Z,0
2018-04-28T02:48:59.862Z,0
2018-04-28T02:49:59.444Z,0
2018-04-28T02:51:00.028Z,0
2018-04-28T02:51:59.572Z,0
2018-04-28T02:54:01.278Z,0
2018-04-28T02:55:02.133Z,0
2018-04-28T02:56:01.987Z,0
2018-04-28T02:57:22.421Z,0
2018-04-28T02:58:23.396Z,0
2018-04-28T02:59:22.874Z,0
2018-04-28T03:00:22.821Z,0
2018-04-28T03:01:22.379Z,0
2018-04-28T03:02:23.050Z,0
2018-04-28T03:03:22.719Z,0
2018-04-28T03:04:44.312Z,0
2018-04-28T03:05:44.853Z,0
2018-04-28T03:06:44.857Z,0
2018-04-28T03:07:45.541Z,0
2018-04-28T03:08:44.975Z,0
2018-04-28T03:09:44.806Z,0
2018-04-28T03:10:44.308Z,0
2018-04-28T03:11:44.812Z,0
2018-04-28T03:12:44.327Z,0
2018-04-28T03:13:44.886Z,0
2018-04-28T03:14:44.857Z,0
2018-04-28T03:15:44.570Z,0
2018-04-28T03:16:44.451Z,0
2018-04-28T03:17:44.182Z,0
2018-04-28T03:18:45.220Z,0
2018-04-28T03:20:04.403Z,0
2018-04-28T03:21:04.987Z,0
2018-04-28T03:22:04.973Z,0
2018-04-28T03:23:04.970Z,0
2018-04-28T03:24:04.482Z,0
2018-04-28T03:25:05.397Z,0
2018-04-28T03:26:05.389Z,0
2018-04-28T03:27:05.408Z,0
2018-04-28T03:28:25.779Z,0
2018-04-28T03:29:47.475Z,0
2018-04-28T03:31:08.768Z,0
2018-04-28T03:32:28.760Z,0
2018-04-28T03:33:29.302Z,0
2018-04-28T03:34:49.564Z,0
2018-04-28T03:35:50.138Z,0
2018-04-28T03:36:50.006Z,0
2018-04-28T03:37:50.041Z,0
2018-04-28T03:38:49.869Z,0
2018-04-28T03:39:49.741Z,0
2018-04-28T03:40:49.266Z,0
2018-04-28T03:41:50.440Z,0
2018-04-28T03:42:50.140Z,0
2018-04-28T03:43:49.720Z,0
2018-04-28T03:44:49.222Z,0
2018-04-28T03:45:49.688Z,0
2018-04-28T03:46:49.763Z,0
2018-04-28T03:47:49.439Z,0
2018-04-28T03:48:50.141Z,0
2018-04-28T03:50:11.551Z,0
2018-04-28T03:51:11.226Z,1
2018-04-28T03:52:12.313Z,1
2018-04-28T03:53:12.241Z,1
2018-04-28T03:54:11.890Z,1
2018-04-28T03:55:11.452Z,1
2018-04-28T03:56:12.205Z,2
2018-04-28T03:57:12.264Z,2
2018-04-28T03:58:11.991Z,2
2018-04-28T03:59:11.710Z,2
2018-04-28T04:00:11.769Z,3
2018-04-28T04:01:11.598Z,3
2018-04-28T04:02:11.354Z,3
2018-04-28T04:03:12.064Z,3
2018-04-28T04:04:53.326Z,4
2018-04-28T04:05:53.973Z,4
2018-04-28T04:06:53.620Z,5
2018-04-28T04:08:15.638Z,5
2018-04-28T04:09:36.229Z,5
2018-04-28T04:10:37.220Z,5
2018-04-28T04:11:37.248Z,5
2018-04-28T04:12:37.254Z,6
2018-04-28T04:13:36.866Z,6
2018-04-28T04:14:36.817Z,7
2018-04-28T04:15:57.486Z,7
2018-04-28T04:16:58.333Z,8
2018-04-28T04:18:18.703Z,8
2018-04-28T04:19:40.125Z,9
2018-04-28T04:20:40.837Z,9
2018-04-28T04:21:40.608Z,10
2018-04-28T04:22:40.186Z,11
2018-04-28T04:23:40.129Z,12
2018-04-28T04:24:41.311Z,12
2018-04-28T04:25:40.178Z,13
2018-04-28T04:26:41.269Z,14
2018-04-28T04:27:41.285Z,14
2018-04-28T04:29:01.703Z,15
2018-04-28T04:30:02.595Z,15
2018-04-28T04:31:02.462Z,16
2018-04-28T04:32:02.673Z,17
2018-04-28T04:33:02.524Z,18
2018-04-28T04:34:02.575Z,19
2018-04-28T04:35:02.846Z,20
2018-04-28T04:36:02.839Z,20
2018-04-28T04:37:02.600Z,21
2018-04-28T04:39:04.745Z,23
2018-04-28T04:40:05.484Z,25
2018-04-28T04:41:05.412Z,26
2018-04-28T04:42:05.208Z,28
2018-04-28T04:43:25.602Z,29
2018-04-28T04:44:25.368Z,30
2018-04-28T04:45:47.598Z,31
2018-04-28T04:46:47.746Z,32
2018-04-28T04:48:08.285Z,33
2018-04-28T04:49:30.294Z,32
2018-04-28T04:50:30.257Z,33
2018-04-28T04:51:30.023Z,34
2018-04-28T04:52:53.513Z,35
2018-04-28T04:53:54.562Z,36
2018-04-28T04:54:54.361Z,37
2018-04-28T04:55:54.201Z,39
2018-04-28T04:56:54.563Z,41
2018-04-28T04:57:59.046Z,42
2018-04-28T04:58:53.837Z,44
2018-04-28T04:59:56.172Z,45
2018-04-28T05:00:57.740Z,47
2018-04-28T05:01:54.651Z,48
2018-04-28T05:02:55.093Z,47
2018-04-28T05:03:55.094Z,48
2018-04-28T05:04:54.323Z,49
2018-04-28T05:05:54.122Z,49
2018-04-28T05:07:00.927Z,50
2018-04-28T05:07:53.654Z,51
2018-04-28T05:08:59.495Z,51
2018-04-28T05:10:07.902Z,52
2018-04-28T05:11:14.602Z,54
2018-04-28T05:12:15.458Z,55
2018-04-28T05:13:14.605Z,58
2018-04-28T05:14:15.428Z,59
2018-04-28T05:15:17.639Z,61
2018-04-28T05:16:14.762Z,62
2018-04-28T05:17:17.247Z,65
2018-04-28T05:18:14.782Z,67
2018-04-28T05:19:15.283Z,69
2018-04-28T05:20:35.616Z,69
2018-04-28T05:21:41.370Z,69
2018-04-28T05:22:40.218Z,70
2018-04-28T05:23:35.106Z,72
2018-04-28T05:24:55.671Z,75
2018-04-28T05:25:55.828Z,79
2018-04-28T05:26:56.280Z,83
2018-04-28T05:27:56.259Z,87
2018-04-28T05:28:56.045Z,91
2018-04-28T05:29:56.155Z,90
2018-04-28T05:31:17.720Z,89
2018-04-28T05:32:38.256Z,88
2018-04-28T05:33:39.072Z,84
2018-04-28T05:34:39.316Z,85
2018-04-28T05:35:39.360Z,90
2018-04-28T05:36:38.739Z,93
2018-04-28T05:37:38.966Z,94
2018-04-28T05:38:39.215Z,95
2018-04-28T05:39:39.359Z,95
2018-04-28T05:40:39.118Z,100
2018-04-28T05:41:39.197Z,110
2018-04-28T05:42:39.913Z,109
2018-04-28T05:43:59.787Z,113
2018-04-28T05:45:00.613Z,122
2018-04-28T05:46:00.696Z,115
2018-04-28T05:47:01.064Z,122
2018-04-28T05:48:01.104Z,123
2018-04-28T05:48:59.797Z,117
2018-04-28T05:50:01.024Z,124
2018-04-28T05:50:59.950Z,129
2018-04-28T05:51:59.778Z,127
2018-04-28T05:53:21.303Z,136
2018-04-28T05:54:24.063Z,141
2018-04-28T05:55:22.298Z,136
2018-04-28T05:56:22.608Z,129
2018-04-28T05:57:21.538Z,130
2018-04-28T05:58:42.870Z,125
2018-04-28T06:00:04.957Z,141
2018-04-28T06:01:13.861Z,148
2018-04-28T06:02:05.334Z,155
2018-04-28T06:03:04.448Z,162
2018-04-28T06:04:04.333Z,172
2018-04-28T06:05:05.591Z,183
2018-04-28T06:06:04.786Z,167
2018-04-28T06:07:05.191Z,173
2018-04-28T06:08:05.195Z,174
2018-04-28T06:09:16.458Z,143
2018-04-28T06:10:04.654Z,120
2018-04-28T06:11:05.451Z,119
2018-04-28T06:12:04.779Z,142
2018-04-28T06:13:05.478Z,132
2018-04-28T06:14:05.672Z,153
2018-04-28T06:15:04.477Z,144
2018-04-28T06:16:25.553Z,133
2018-04-28T06:17:25.802Z,151
2018-04-28T06:18:26.053Z,141
2018-04-28T06:19:26.055Z,129
2018-04-28T06:20:25.865Z,129
2018-04-28T06:21:26.206Z,132
2018-04-28T06:22:26.260Z,135
2018-04-28T06:23:26.453Z,106
2018-04-28T06:24:25.291Z,102
2018-04-28T06:25:26.602Z,105
2018-04-28T06:26:25.475Z,128
2018-04-28T06:27:25.279Z,118
2018-04-28T06:28:46.570Z,126
2018-04-28T06:29:47.031Z,136
2018-04-28T06:31:07.972Z,142
2018-04-28T06:32:07.838Z,150
2018-04-28T06:33:08.015Z,157
2018-04-28T06:34:08.013Z,217
2018-04-28T06:35:07.912Z,239
2018-04-28T06:36:07.767Z,249
2018-04-28T06:37:08.606Z,265
2018-04-28T06:38:08.497Z,213
2018-04-28T06:39:08.506Z,186
2018-04-28T06:40:08.735Z,173
2018-04-28T06:41:08.006Z,178
2018-04-28T06:42:08.216Z,176
2018-04-28T06:43:29.270Z,186
2018-04-28T06:44:29.623Z,187
2018-04-28T06:45:29.763Z,186
2018-04-28T06:46:50.146Z,186
2018-04-28T06:47:51.175Z,188
2018-04-28T06:48:51.426Z,184
2018-04-28T06:49:50.380Z,178
2018-04-28T06:51:34.792Z,176
2018-04-28T06:52:36.014Z,175
2018-04-28T06:53:35.792Z,180
2018-04-28T06:54:56.372Z,186
2018-04-28T06:55:57.195Z,199
2018-04-28T06:57:17.845Z,218
2018-04-28T06:58:18.763Z,214
2018-04-28T06:59:19.112Z,218
2018-04-28T07:00:38.617Z,266
2018-04-28T07:01:39.871Z,200
2018-04-28T07:02:39.495Z,196
2018-04-28T07:03:40.257Z,195
2018-04-28T07:04:40.061Z,195
2018-04-28T07:05:40.021Z,196
2018-04-28T07:06:40.716Z,199
2018-04-28T07:07:39.729Z,203
2018-04-28T07:08:40.005Z,227
2018-04-28T07:09:39.410Z,218
2018-04-28T07:10:40.897Z,208
2018-04-28T07:11:39.176Z,206
2018-04-28T07:13:00.159Z,207
2018-04-28T07:14:00.184Z,210
2018-04-28T07:15:00.704Z,211
2018-04-28T07:16:00.621Z,203
2018-04-28T07:17:00.369Z,193
2018-04-28T07:18:00.363Z,179
2018-04-28T07:19:21.296Z,167
2018-04-28T07:20:21.708Z,166
2018-04-28T07:21:21.756Z,168
2018-04-28T07:22:22.009Z,175
2018-04-28T07:23:22.480Z,174
2018-04-28T07:24:21.318Z,179
2018-04-28T07:25:21.700Z,195
2018-04-28T07:26:21.571Z,191
2018-04-28T07:27:21.345Z,195
2018-04-28T07:28:21.709Z,199
2018-04-28T07:29:22.005Z,204
2018-04-28T07:30:22.028Z,214
2018-04-28T07:31:21.942Z,215
2018-04-28T07:32:22.173Z,209
2018-04-28T07:33:22.144Z,207
2018-04-28T07:34:42.972Z,205
2018-04-28T07:35:42.686Z,207
2018-04-28T07:36:44.114Z,202
2018-04-28T07:37:44.057Z,202
2018-04-28T07:38:44.018Z,194
2018-04-28T07:39:43.275Z,184
2018-04-28T07:40:43.362Z,177
2018-04-28T07:41:43.545Z,169
2018-04-28T07:42:43.900Z,164
2018-04-28T07:43:43.218Z,161
2018-04-28T07:44:43.995Z,159
2018-04-28T07:45:43.627Z,156
2018-04-28T07:47:05.267Z,154
2018-04-28T07:48:05.258Z,155
2018-04-28T07:49:06.022Z,155
2018-04-28T07:50:27.129Z,155
2018-04-28T07:51:27.412Z,150
2018-04-28T07:52:28.772Z,144
2018-04-28T07:53:28.347Z,141
2018-04-28T07:54:29.250Z,141
2018-04-28T07:55:27.162Z,142
2018-04-28T07:56:27.603Z,143
2018-04-28T07:57:27.684Z,144
2018-04-28T07:58:27.543Z,146
2018-04-28T07:59:27.850Z,149
2018-04-28T08:00:55.702Z,150
2018-04-28T08:01:49.946Z,151
2018-04-28T08:03:09.734Z,154
2018-04-28T08:04:31.524Z,156
2018-04-28T08:05:32.214Z,157
2018-04-28T08:06:32.702Z,156
2018-04-28T08:07:31.608Z,153
2018-04-28T08:08:32.020Z,150
2018-04-28T08:09:32.359Z,149
2018-04-28T08:10:53.641Z,145
2018-04-28T08:12:15.453Z,142
2018-04-28T08:13:16.160Z,142
2018-04-28T08:14:15.178Z,144
2018-04-28T08:15:15.204Z,149
2018-04-28T08:16:17.039Z,154
2018-04-28T08:17:15.881Z,155
2018-04-28T08:18:15.767Z,155
2018-04-28T08:19:15.781Z,152
2018-04-28T08:20:16.176Z,150
2018-04-28T08:21:16.284Z,150
2018-04-28T08:22:16.263Z,154
2018-04-28T08:23:15.385Z,156
2018-04-28T08:24:15.720Z,158
2018-04-28T08:25:36.664Z,161
2018-04-28T08:26:36.607Z,165
2018-04-28T08:27:36.854Z,168
2018-04-28T08:28:37.783Z,176
2018-04-28T08:29:36.646Z,183
2018-04-28T08:30:36.756Z,193
2018-04-28T08:31:36.757Z,202
2018-04-28T08:32:36.756Z,209
2018-04-28T08:33:36.854Z,220
2018-04-28T08:34:37.272Z,230
2018-04-28T08:35:36.177Z,240
2018-04-28T08:36:36.256Z,263
2018-04-28T08:37:38.321Z,285
2018-04-28T08:38:37.334Z,296
2018-04-28T08:39:36.367Z,310
2018-04-28T08:40:36.222Z,316
2018-04-28T08:41:58.140Z,313
2018-04-28T08:43:19.894Z,289
2018-04-28T08:44:21.361Z,288
2018-04-28T08:45:21.116Z,285
2018-04-28T08:46:20.220Z,276
2018-04-28T08:47:20.709Z,283
2018-04-28T08:48:21.380Z,292
2018-04-28T08:49:20.701Z,278
2018-04-28T08:50:20.960Z,300
2018-04-28T08:51:19.836Z,318
2018-04-28T08:52:20.964Z,309
2018-04-28T08:53:20.903Z,274
2018-04-28T08:54:20.991Z,286
2018-04-28T08:55:22.454Z,302
2018-04-28T08:56:20.330Z,301
2018-04-28T08:57:41.481Z,303
2018-04-28T08:58:41.462Z,304
2018-04-28T08:59:41.988Z,307
2018-04-28T09:00:42.137Z,266
2018-04-28T09:01:42.609Z,258
2018-04-28T09:02:42.023Z,251
2018-04-28T09:03:42.157Z,241
2018-04-28T09:05:02.946Z,231
2018-04-28T09:06:02.777Z,223
2018-04-28T09:07:02.761Z,212
2018-04-28T09:08:04.168Z,207
2018-04-28T09:09:03.006Z,200
2018-04-28T09:10:02.865Z,183
2018-04-28T09:11:03.547Z,172
2018-04-28T09:12:03.737Z,174
2018-04-28T09:13:03.641Z,181
2018-04-28T09:14:03.620Z,190
2018-04-28T09:15:03.013Z,192
2018-04-28T09:16:03.210Z,188
2018-04-28T09:17:03.288Z,196
2018-04-28T09:18:03.644Z,221
2018-04-28T09:19:03.475Z,243
2018-04-28T09:20:03.856Z,254
2018-04-28T09:21:03.214Z,257
2018-04-28T09:22:24.510Z,258
2018-04-28T09:23:24.781Z,257
2018-04-28T09:24:24.586Z,251
2018-04-28T09:25:24.388Z,243
2018-04-28T09:26:24.304Z,227
2018-04-28T09:27:24.346Z,196
2018-04-28T09:28:24.606Z,163
2018-04-28T09:29:24.846Z,137
2018-04-28T09:30:25.800Z,136
2018-04-28T09:31:24.784Z,145
2018-04-28T09:32:24.586Z,155
2018-04-28T09:33:24.806Z,154
2018-04-28T09:34:25.163Z,147
2018-04-28T09:35:24.957Z,147
2018-04-28T09:36:25.103Z,155
2018-04-28T09:37:25.215Z,161
2018-04-28T09:38:24.527Z,168
2018-04-28T09:39:24.754Z,175
2018-04-28T09:40:24.968Z,183
2018-04-28T09:41:25.432Z,189
2018-04-28T09:42:24.607Z,205
2018-04-28T09:43:24.417Z,230
2018-04-28T09:44:24.685Z,255
2018-04-28T09:45:25.062Z,663
2018-04-28T09:46:24.205Z,671
2018-04-28T09:47:24.704Z,650
2018-04-28T09:48:24.929Z,274
2018-04-28T09:49:24.863Z,595
2018-04-28T09:50:24.987Z,623
2018-04-28T09:51:25.217Z,633
2018-04-28T09:52:24.513Z,621
2018-04-28T09:53:24.685Z,635
2018-04-28T09:54:24.811Z,621
2018-04-28T09:55:25.006Z,620
2018-04-28T09:56:46.269Z,656
2018-04-28T09:57:46.673Z,611
2018-04-28T09:58:46.611Z,610
2018-04-28T10:00:28.820Z,685
2018-04-28T10:01:29.029Z,719
2018-04-28T10:02:28.807Z,718
2018-04-28T10:03:29.024Z,727
2018-04-28T10:04:28.961Z,691
2018-04-28T10:05:29.286Z,762
2018-04-28T10:06:29.462Z,576
2018-04-28T10:07:33.248Z,771
2018-04-28T10:08:29.266Z,760
2018-04-28T10:09:30.026Z,756
2018-04-28T10:10:29.231Z,722
2018-04-28T10:11:29.317Z,239
2018-04-28T10:12:29.618Z,245
2018-04-28T10:13:28.900Z,451
2018-04-28T10:14:29.409Z,377
2018-04-28T10:15:28.471Z,257
2018-04-28T10:16:29.677Z,214
2018-04-28T10:17:49.797Z,204
2018-04-28T10:18:49.567Z,196
2018-04-28T10:19:49.529Z,218
2018-04-28T10:21:12.047Z,227
2018-04-28T10:22:33.437Z,714
2018-04-28T10:23:35.225Z,296
2018-04-28T10:24:34.095Z,208
2018-04-28T10:26:17.325Z,174
2018-04-28T10:27:18.600Z,164
2018-04-28T10:28:17.628Z,147
2018-04-28T10:29:18.051Z,138
2018-04-28T10:30:17.542Z,132
2018-04-28T10:31:17.928Z,133
2018-04-28T10:32:16.821Z,141
2018-04-28T10:33:20.543Z,155
2018-04-28T10:34:17.683Z,159
2018-04-28T10:35:16.868Z,143
2018-04-28T10:36:37.985Z,114
2018-04-28T10:37:39.773Z,99
2018-04-28T10:38:38.715Z,93
2018-04-28T10:39:39.128Z,93
2018-04-28T10:40:39.085Z,97
2018-04-28T10:41:39.287Z,105
2018-04-28T10:42:38.600Z,114
2018-04-28T10:43:38.689Z,125
2018-04-28T10:44:39.342Z,135
2018-04-28T10:45:38.756Z,147
2018-04-28T10:47:00.910Z,162
2018-04-28T10:48:01.144Z,176
2018-04-28T10:49:23.226Z,195
2018-04-28T10:50:22.598Z,208
2018-04-28T10:51:23.205Z,217
2018-04-28T10:52:22.023Z,227
2018-04-28T10:53:43.217Z,239
2018-04-28T10:54:43.415Z,235
2018-04-28T10:55:43.424Z,228
2018-04-28T10:56:43.279Z,216
2018-04-28T10:57:43.539Z,215
2018-04-28T10:59:05.693Z,223
2018-04-28T11:00:06.396Z,225
2018-04-28T11:01:06.546Z,224
2018-04-28T11:02:05.931Z,222
2018-04-28T11:03:05.941Z,223
2018-04-28T11:04:06.189Z,234
2018-04-28T11:05:06.585Z,250
2018-04-28T11:06:06.475Z,271
2018-04-28T11:07:05.441Z,288
2018-04-28T11:08:06.350Z,291
2018-04-28T11:09:06.214Z,275
2018-04-28T11:10:47.869Z,260
2018-04-28T11:11:47.730Z,251
2018-04-28T11:12:48.825Z,254
2018-04-28T11:13:47.786Z,245
2018-04-28T11:14:48.233Z,256
2018-04-28T11:15:48.344Z,302
2018-04-28T11:16:48.960Z,325
2018-04-28T11:17:48.518Z,316
2018-04-28T11:19:32.605Z,302
2018-04-28T11:20:32.943Z,238
2018-04-28T11:21:33.769Z,196
2018-04-28T11:22:33.344Z,190
2018-04-28T11:23:32.494Z,213
2018-04-28T11:24:32.993Z,232
2018-04-28T11:25:33.089Z,241
2018-04-28T11:26:53.940Z,225
2018-04-28T11:28:16.227Z,199
2018-04-28T11:29:16.100Z,181
2018-04-28T11:30:16.424Z,164
2018-04-28T11:31:16.678Z,152
2018-04-28T11:32:16.513Z,146
2018-04-28T11:33:37.469Z,141
2018-04-28T11:34:37.316Z,138
2018-04-28T11:36:41.265Z,162
2018-04-28T11:37:40.248Z,184
2018-04-28T11:38:40.756Z,187
2018-04-28T11:40:02.071Z,179
2018-04-28T11:41:01.990Z,175
2018-04-28T11:42:03.256Z,168
2018-04-28T11:43:02.142Z,160
2018-04-28T11:44:07.407Z,160
2018-04-28T11:45:23.204Z,169
2018-04-28T11:46:24.454Z,182
2018-04-28T11:47:23.805Z,194
2018-04-28T11:48:24.292Z,199
2018-04-28T11:49:23.250Z,194
2018-04-28T11:50:23.677Z,184
2018-04-28T11:51:23.571Z,180
2018-04-28T11:52:23.709Z,179
2018-04-28T11:53:24.597Z,176
2018-04-28T11:54:23.456Z,171
2018-04-28T11:55:23.394Z,165
2018-04-28T11:56:44.983Z,168
2018-04-28T11:58:06.692Z,182
2018-04-28T11:59:07.900Z,185
2018-04-28T12:00:07.283Z,185
2018-04-28T12:01:08.225Z,185
2018-04-28T12:02:07.826Z,184
2018-04-28T12:03:07.183Z,188
2018-04-28T12:04:07.736Z,198
2018-04-28T12:05:28.096Z,220
2018-04-28T12:06:29.597Z,244
2018-04-28T12:07:30.365Z,256
2018-04-28T12:08:28.169Z,264
2018-04-28T12:09:29.522Z,270
2018-04-28T12:10:28.657Z,275
2018-04-28T12:11:28.871Z,283
2018-04-28T12:12:28.948Z,291
2018-04-28T12:13:29.440Z,299
2018-04-28T12:14:28.596Z,311
2018-04-28T12:15:30.029Z,327
2018-04-28T12:16:30.298Z,356
2018-04-28T12:17:28.629Z,387
2018-04-28T12:18:28.765Z,405
2018-04-28T12:19:29.217Z,407
2018-04-28T12:20:50.108Z,382
2018-04-28T12:21:50.279Z,357
2018-04-28T12:22:50.541Z,338
2018-04-28T12:23:50.623Z,327
2018-04-28T12:24:50.341Z,322
2018-04-28T12:25:50.027Z,287
2018-04-28T12:27:11.600Z,267
2018-04-28T12:28:12.018Z,280
2018-04-28T12:29:11.998Z,256
2018-04-28T12:30:12.297Z,246
2018-04-28T12:31:13.210Z,234
2018-04-28T12:32:12.650Z,241
2018-04-28T12:33:54.070Z,294
2018-04-28T12:34:53.997Z,313
2018-04-28T12:35:53.871Z,319
2018-04-28T12:36:54.155Z,329
2018-04-28T12:37:53.864Z,341
2018-04-28T12:38:54.360Z,351
2018-04-28T12:40:15.207Z,357
2018-04-28T12:41:37.261Z,349
2018-04-28T12:42:57.496Z,358
2018-04-28T12:43:57.769Z,363
2018-04-28T12:44:57.658Z,319
2018-04-28T12:45:57.930Z,307
2018-04-28T12:46:58.243Z,308
2018-04-28T12:47:57.446Z,323
2018-04-28T12:48:57.271Z,354
2018-04-28T12:49:57.120Z,352
2018-04-28T12:50:59.535Z,360
2018-04-28T12:51:57.588Z,371
2018-04-28T12:52:57.402Z,667
2018-04-28T12:53:58.813Z,537
2018-04-28T12:54:57.911Z,308
2018-04-28T12:55:57.982Z,246
2018-04-28T12:56:58.220Z,210
2018-04-28T12:57:57.519Z,245
2018-04-28T12:58:57.881Z,367
2018-04-28T12:59:58.029Z,470
2018-04-28T13:00:57.800Z,227
2018-04-28T13:01:58.435Z,472
2018-04-28T13:03:39.440Z,318
2018-04-28T13:05:01.116Z,259
2018-04-28T13:06:01.539Z,663
2018-04-28T13:07:01.621Z,696
2018-04-28T13:08:22.439Z,291
2018-04-28T13:10:05.889Z,268
2018-04-28T13:11:05.819Z,259
2018-04-28T13:12:05.735Z,510
2018-04-28T13:13:48.330Z,564
2018-04-28T13:14:48.610Z,539
2018-04-28T13:15:50.544Z,543
2018-04-28T13:16:48.774Z,546
2018-04-28T13:17:48.715Z,486
2018-04-28T13:18:48.800Z,463
2018-04-28T13:19:48.981Z,436
2018-04-28T13:21:08.930Z,396
2018-04-28T13:22:08.737Z,610
2018-04-28T13:23:09.425Z,329
2018-04-28T13:24:30.277Z,301
2018-04-28T13:25:31.302Z,323
2018-04-28T13:26:51.855Z,418
2018-04-28T13:27:51.816Z,653
2018-04-28T13:28:52.556Z,468
2018-04-28T13:29:51.872Z,316
2018-04-28T13:30:52.064Z,314
2018-04-28T13:31:50.996Z,576
2018-04-28T13:32:51.903Z,432
2018-04-28T13:33:56.298Z,694
2018-04-28T13:34:51.390Z,371
2018-04-28T13:37:16.207Z,387
2018-04-28T13:38:16.413Z,409
2018-04-28T13:39:16.701Z,269
2018-04-28T13:40:19.330Z,369
2018-04-28T13:41:16.347Z,326
2018-04-28T13:42:16.702Z,543
2018-04-28T13:43:17.389Z,562
2018-04-28T13:44:37.480Z,612
2018-04-28T13:45:37.666Z,594
2018-04-28T13:46:37.825Z,610
2018-04-28T13:47:37.592Z,607
2018-04-28T13:48:37.494Z,585
2018-04-28T13:49:59.529Z,370
2018-04-28T13:50:59.502Z,553
2018-04-28T13:52:21.400Z,215
2018-04-28T13:53:21.296Z,225
2018-04-28T13:54:22.943Z,272
2018-04-28T13:55:43.015Z,191
2018-04-28T13:56:43.110Z,175
2018-04-28T13:57:43.445Z,160
2018-04-28T13:58:43.052Z,155
2018-04-28T13:59:54.076Z,157
2018-04-28T14:01:00.933Z,163
2018-04-28T14:01:43.270Z,161
2018-04-28T14:02:44.103Z,153
2018-04-28T14:03:51.237Z,146
2018-04-28T14:04:43.248Z,138
2018-04-28T14:05:43.691Z,132
2018-04-28T14:07:05.037Z,133
2018-04-28T14:08:05.299Z,137
2018-04-28T14:09:05.576Z,147
2018-04-28T14:10:05.391Z,157
2018-04-28T14:11:26.534Z,174
2018-04-28T14:12:27.478Z,183
2018-04-28T14:13:27.854Z,181
2018-04-28T14:14:27.233Z,182
2018-04-28T14:15:27.319Z,196
2018-04-28T14:16:27.581Z,223
2018-04-28T14:17:28.270Z,467
2018-04-28T14:18:27.772Z,533
2018-04-28T14:19:26.805Z,484
2018-04-28T14:20:27.183Z,397
2018-04-28T14:21:27.493Z,549
2018-04-28T14:22:26.773Z,510
2018-04-28T14:23:27.100Z,499
2018-04-28T14:25:31.032Z,259
2018-04-28T14:26:30.302Z,264
2018-04-28T14:27:30.456Z,256
2018-04-28T14:28:32.022Z,240
2018-04-28T14:29:31.348Z,242
2018-04-28T14:30:30.158Z,203
2018-04-28T14:31:30.072Z,196
2018-04-28T14:32:31.342Z,191
2018-04-28T14:34:12.426Z,175
2018-04-28T14:35:13.543Z,165
2018-04-28T14:36:13.262Z,156
2018-04-28T14:37:39.551Z,142
2018-04-28T14:38:34.904Z,129
2018-04-28T14:39:34.289Z,119
2018-04-28T14:40:56.391Z,94
2018-04-28T14:41:57.535Z,74
2018-04-28T14:42:57.073Z,60
2018-04-28T14:43:56.025Z,51
2018-04-28T14:44:56.128Z,46
2018-04-28T14:45:57.426Z,44
2018-04-28T14:46:56.731Z,47
2018-04-28T14:47:57.699Z,52
2018-04-28T14:49:17.926Z,61
2018-04-28T14:50:18.189Z,70
2018-04-28T14:52:01.117Z,97
2018-04-28T14:53:01.742Z,118
2018-04-28T14:54:01.733Z,137
2018-04-28T14:55:01.728Z,160
2018-04-28T14:56:03.688Z,178
2018-04-28T14:57:01.913Z,209
2018-04-28T14:58:18.617Z,241
2018-04-28T14:59:15.035Z,273
2018-04-28T15:00:03.335Z,267
2018-04-28T15:01:12.375Z,313
2018-04-28T15:02:02.867Z,303